createdAt,value
2018-05-01T00:00:09.929Z,0
2018-05-01T00:01:09.120Z,0
2018-05-01T00:02:09.647Z,0
2018-05-01T00:03:09.926Z,0
2018-05-01T00:04:09.701Z,0
2018-05-01T00:05:09.717Z,0
2018-05-01T00:06:09.477Z,0
2018-05-01T00:07:10.010Z,0
2018-05-01T00:08:09.520Z,0
2018-05-01T00:09:10.057Z,0
2018-05-01T00:10:11.361Z,0
2018-05-01T00:11:09.839Z,0
2018-05-01T00:12:09.863Z,0
2018-05-01T00:13:09.900Z,0
2018-05-01T00:14:10.162Z,0
2018-05-01T00:15:10.183Z,0
2018-05-01T00:16:10.019Z,0
2018-05-01T00:17:10.232Z,0
2018-05-01T00:18:10.251Z,0
2018-05-01T00:19:10.280Z,0
2018-05-01T00:20:10.297Z,0
2018-05-01T00:21:10.066Z,0
2018-05-01T00:22:09.827Z,0
2018-05-01T00:23:10.357Z,0
2018-05-01T00:24:10.128Z,0
2018-05-01T00:25:10.526Z,0
2018-05-01T00:26:10.417Z,0
2018-05-01T00:27:09.939Z,0
2018-05-01T00:28:10.209Z,0
2018-05-01T00:29:09.980Z,0
2018-05-01T00:30:10.254Z,0
2018-05-01T00:31:10.024Z,0
2018-05-01T00:32:10.301Z,0
2018-05-01T00:33:10.321Z,0
2018-05-01T00:34:10.086Z,0
2018-05-01T00:35:10.376Z,0
2018-05-01T00:36:10.138Z,0
2018-05-01T00:37:10.156Z,0
2018-05-01T00:38:10.680Z,0
2018-05-01T00:39:10.189Z,0
2018-05-01T00:40:10.524Z,0
2018-05-01T00:41:10.742Z,0
2018-05-01T00:42:10.763Z,0
2018-05-01T00:43:10.534Z,0
2018-05-01T00:44:10.549Z,0
2018-05-01T00:45:10.320Z,0
2018-05-01T00:46:10.340Z,0
2018-05-01T00:47:10.360Z,0
2018-05-01T00:48:10.894Z,0
2018-05-01T00:49:10.441Z,0
2018-05-01T00:50:10.687Z,0
2018-05-01T00:51:10.444Z,0
2018-05-01T00:52:10.210Z,0
2018-05-01T00:53:10.995Z,0
2018-05-01T00:54:10.522Z,0
2018-05-01T00:55:11.029Z,0
2018-05-01T00:56:10.843Z,0
2018-05-01T00:57:10.561Z,0
2018-05-01T00:58:11.092Z,0
2018-05-01T00:59:11.123Z,0
2018-05-01T01:00:10.888Z,0
2018-05-01T01:01:10.661Z,0
2018-05-01T01:02:10.929Z,0
2018-05-01T01:03:10.952Z,0
2018-05-01T01:04:10.978Z,0
2018-05-01T01:05:10.993Z,0
2018-05-01T01:06:11.005Z,0
2018-05-01T01:07:11.319Z,0
2018-05-01T01:08:11.059Z,0
2018-05-01T01:09:11.107Z,0
2018-05-01T01:10:11.427Z,0
2018-05-01T01:11:11.384Z,0
2018-05-01T01:12:11.446Z,0
2018-05-01T01:13:11.159Z,0
2018-05-01T01:14:11.178Z,0
2018-05-01T01:15:11.205Z,0
2018-05-01T01:16:11.474Z,0
2018-05-01T01:17:11.251Z,0
2018-05-01T01:18:11.517Z,0
2018-05-01T01:19:11.545Z,0
2018-05-01T01:20:11.307Z,0
2018-05-01T01:21:11.583Z,0
2018-05-01T01:22:11.431Z,0
2018-05-01T01:23:11.380Z,0
2018-05-01T01:24:11.149Z,0
2018-05-01T01:25:11.685Z,0
2018-05-01T01:26:11.186Z,0
2018-05-01T01:27:11.758Z,0
2018-05-01T01:28:11.496Z,0
2018-05-01T01:29:11.498Z,0
2018-05-01T01:30:11.794Z,0
2018-05-01T01:31:11.799Z,0
2018-05-01T01:32:11.053Z,0
2018-05-01T01:33:11.849Z,0
2018-05-01T01:34:11.847Z,0
2018-05-01T01:35:11.615Z,0
2018-05-01T01:36:11.889Z,0
2018-05-01T01:37:11.655Z,0
2018-05-01T01:38:11.931Z,0
2018-05-01T01:39:11.708Z,0
2018-05-01T01:40:11.722Z,0
2018-05-01T01:41:12.006Z,0
2018-05-01T01:42:12.073Z,0
2018-05-01T01:43:12.049Z,0
2018-05-01T01:44:12.061Z,0
2018-05-01T01:45:12.103Z,0
2018-05-01T01:46:12.106Z,0
2018-05-01T01:47:12.121Z,0
2018-05-01T01:48:12.141Z,0
2018-05-01T01:49:12.160Z,0
2018-05-01T01:50:11.932Z,0
2018-05-01T01:51:12.193Z,0
2018-05-01T01:52:12.209Z,0
2018-05-01T01:53:11.984Z,0
2018-05-01T01:54:12.312Z,0
2018-05-01T01:55:12.020Z,0
2018-05-01T01:56:12.046Z,0
2018-05-01T01:57:12.106Z,0
2018-05-01T01:58:12.082Z,0
2018-05-01T01:59:12.371Z,0
2018-05-01T02:00:12.143Z,0
2018-05-01T02:01:12.163Z,0
2018-05-01T02:02:12.184Z,0
2018-05-01T02:03:12.515Z,0
2018-05-01T02:04:12.477Z,0
2018-05-01T02:05:11.991Z,0
2018-05-01T02:06:12.520Z,0
2018-05-01T02:07:12.296Z,0
2018-05-01T02:08:12.582Z,0
2018-05-01T02:09:12.317Z,0
2018-05-01T02:10:12.604Z,0
2018-05-01T02:11:12.108Z,0
2018-05-01T02:12:12.440Z,0
2018-05-01T02:13:12.667Z,0
2018-05-01T02:14:12.436Z,0
2018-05-01T02:15:12.451Z,0
2018-05-01T02:16:12.218Z,0
2018-05-01T02:17:12.760Z,0
2018-05-01T02:18:12.762Z,0
2018-05-01T02:19:12.770Z,0
2018-05-01T02:20:12.554Z,0
2018-05-01T02:21:12.829Z,0
2018-05-01T02:22:12.595Z,0
2018-05-01T02:23:12.629Z,0
2018-05-01T02:24:12.965Z,0
2018-05-01T02:25:12.914Z,0
2018-05-01T02:26:12.932Z,0
2018-05-01T02:27:12.752Z,0
2018-05-01T02:28:12.981Z,0
2018-05-01T02:29:13.011Z,0
2018-05-01T02:30:13.019Z,0
2018-05-01T02:31:12.529Z,0
2018-05-01T02:32:12.811Z,0
2018-05-01T02:33:12.823Z,0
2018-05-01T02:34:13.102Z,0
2018-05-01T02:35:12.862Z,0
2018-05-01T02:36:12.886Z,0
2018-05-01T02:37:13.160Z,0
2018-05-01T02:38:13.179Z,0
2018-05-01T02:39:13.205Z,0
2018-05-01T02:40:13.224Z,0
2018-05-01T02:41:13.280Z,0
2018-05-01T02:42:13.311Z,0
2018-05-01T02:43:13.280Z,0
2018-05-01T02:44:13.299Z,0
2018-05-01T02:45:13.335Z,0
2018-05-01T02:46:13.359Z,0
2018-05-01T02:47:12.855Z,0
2018-05-01T02:48:13.392Z,0
2018-05-01T02:49:12.900Z,0
2018-05-01T02:50:13.427Z,0
2018-05-01T02:51:13.448Z,0
2018-05-01T02:52:13.475Z,0
2018-05-01T02:53:13.492Z,0
2018-05-01T02:54:13.265Z,0
2018-05-01T02:55:13.261Z,0
2018-05-01T02:56:13.537Z,0
2018-05-01T02:57:13.357Z,0
2018-05-01T02:58:13.580Z,0
2018-05-01T02:59:13.612Z,0
2018-05-01T03:00:13.371Z,0
2018-05-01T03:01:13.662Z,0
2018-05-01T03:02:13.668Z,0
2018-05-01T03:03:13.439Z,0
2018-05-01T03:04:13.440Z,0
2018-05-01T03:05:13.725Z,0
2018-05-01T03:06:13.755Z,0
2018-05-01T03:07:13.773Z,0
2018-05-01T03:08:13.775Z,0
2018-05-01T03:09:13.559Z,0
2018-05-01T03:10:13.577Z,0
2018-05-01T03:11:13.855Z,0
2018-05-01T03:12:13.661Z,4
2018-05-01T03:13:13.886Z,0
2018-05-01T03:14:13.654Z,4
2018-05-01T03:15:13.932Z,4
2018-05-01T03:16:13.696Z,4
2018-05-01T03:17:13.972Z,4
2018-05-01T03:18:13.486Z,4
2018-05-01T03:19:13.759Z,4
2018-05-01T03:20:13.796Z,4
2018-05-01T03:21:14.074Z,4
2018-05-01T03:22:14.093Z,4
2018-05-01T03:23:13.849Z,4
2018-05-01T03:24:14.143Z,4
2018-05-01T03:25:14.153Z,4
2018-05-01T03:26:14.174Z,4
2018-05-01T03:27:13.990Z,4
2018-05-01T03:28:13.956Z,0
2018-05-01T03:29:13.977Z,4
2018-05-01T03:30:14.009Z,4
2018-05-01T03:31:14.032Z,4
2018-05-01T03:32:14.308Z,8
2018-05-01T03:33:14.068Z,4
2018-05-01T03:34:14.351Z,8
2018-05-01T03:35:14.128Z,4
2018-05-01T03:36:14.138Z,8
2018-05-01T03:37:14.408Z,8
2018-05-01T03:38:14.431Z,8
2018-05-01T03:39:14.795Z,8
2018-05-01T03:40:13.961Z,8
2018-05-01T03:41:14.228Z,16
2018-05-01T03:42:14.309Z,16
2018-05-01T03:43:14.539Z,16
2018-05-01T03:44:14.554Z,20
2018-05-01T03:45:14.579Z,24
2018-05-01T03:46:14.597Z,24
2018-05-01T03:47:14.366Z,28
2018-05-01T03:48:14.648Z,28
2018-05-01T03:49:14.420Z,32
2018-05-01T03:50:14.674Z,32
2018-05-01T03:51:14.807Z,40
2018-05-01T03:52:14.723Z,44
2018-05-01T03:53:14.743Z,52
2018-05-01T03:54:14.764Z,60
2018-05-01T03:55:14.789Z,64
2018-05-01T03:56:14.771Z,72
2018-05-01T03:57:14.577Z,76
2018-05-01T03:58:14.599Z,84
2018-05-01T03:59:14.667Z,92
2018-05-01T04:00:14.884Z,100
2018-05-01T04:01:14.902Z,108
2018-05-01T04:02:15.171Z,120
2018-05-01T04:03:14.950Z,128
2018-05-01T04:04:14.974Z,136
2018-05-01T04:05:14.487Z,144
2018-05-01T04:06:14.757Z,148
2018-05-01T04:07:15.038Z,160
2018-05-01T04:08:15.065Z,168
2018-05-01T04:09:14.583Z,180
2018-05-01T04:10:14.859Z,192
2018-05-01T04:11:15.142Z,204
2018-05-01T04:12:14.916Z,220
2018-05-01T04:13:15.173Z,236
2018-05-01T04:14:14.994Z,252
2018-05-01T04:15:14.718Z,264
2018-05-01T04:16:15.240Z,280
2018-05-01T04:17:15.246Z,296
2018-05-01T04:18:15.371Z,312
2018-05-01T04:19:15.288Z,336
2018-05-01T04:20:15.321Z,368
2018-05-01T04:21:15.331Z,392
2018-05-01T04:22:15.108Z,416
2018-05-01T04:23:15.482Z,440
2018-05-01T04:24:15.395Z,456
2018-05-01T04:25:15.453Z,468
2018-05-01T04:26:15.454Z,480
2018-05-01T04:27:15.472Z,484
2018-05-01T04:28:15.493Z,488
2018-05-01T04:29:15.319Z,500
2018-05-01T04:30:15.563Z,504
2018-05-01T04:31:15.566Z,504
2018-05-01T04:32:15.579Z,508
2018-05-01T04:33:15.603Z,520
2018-05-01T04:34:15.374Z,532
2018-05-01T04:35:15.391Z,548
2018-05-01T04:36:15.412Z,564
2018-05-01T04:37:15.436Z,592
2018-05-01T04:38:15.452Z,612
2018-05-01T04:39:15.734Z,632
2018-05-01T04:40:15.497Z,644
2018-05-01T04:41:15.775Z,640
2018-05-01T04:42:15.540Z,640
2018-05-01T04:43:15.824Z,640
2018-05-01T04:44:15.878Z,652
2018-05-01T04:45:15.845Z,656
2018-05-01T04:46:15.623Z,692
2018-05-01T04:47:15.643Z,716
2018-05-01T04:48:15.926Z,728
2018-05-01T04:49:15.930Z,736
2018-05-01T04:50:15.703Z,736
2018-05-01T04:51:15.738Z,732
2018-05-01T04:52:15.745Z,732
2018-05-01T04:53:16.024Z,736
2018-05-01T04:54:15.793Z,752
2018-05-01T04:55:15.561Z,776
2018-05-01T04:56:15.828Z,776
2018-05-01T04:57:15.864Z,768
2018-05-01T04:58:16.127Z,752
2018-05-01T04:59:16.207Z,748
2018-05-01T05:00:16.178Z,744
2018-05-01T05:01:16.201Z,736
2018-05-01T05:02:15.968Z,740
2018-05-01T05:03:16.232Z,748
2018-05-01T05:04:16.049Z,760
2018-05-01T05:05:16.271Z,792
2018-05-01T05:06:16.323Z,828
2018-05-01T05:07:16.067Z,864
2018-05-01T05:08:16.382Z,888
2018-05-01T05:09:16.136Z,912
2018-05-01T05:10:16.394Z,940
2018-05-01T05:11:16.439Z,964
2018-05-01T05:12:16.181Z,992
2018-05-01T05:13:16.198Z,1012
2018-05-01T05:14:17.672Z,1032
2018-05-01T05:15:16.495Z,1044
2018-05-01T05:16:16.012Z,1048
2018-05-01T05:17:16.539Z,1060
2018-05-01T05:18:16.578Z,1068
2018-05-01T05:19:16.650Z,1072
2018-05-01T05:20:16.683Z,1088
2018-05-01T05:21:16.618Z,1120
2018-05-01T05:22:16.394Z,1160
2018-05-01T05:23:16.419Z,1208
2018-05-01T05:24:16.690Z,1248
2018-05-01T05:25:16.710Z,1280
2018-05-01T05:26:16.734Z,1308
2018-05-01T05:27:16.749Z,1340
2018-05-01T05:28:16.775Z,1384
2018-05-01T05:29:16.544Z,1436
2018-05-01T05:30:16.558Z,1472
2018-05-01T05:31:16.836Z,1492
2018-05-01T05:32:16.596Z,1512
2018-05-01T05:33:16.870Z,1556
2018-05-01T05:34:16.946Z,1612
2018-05-01T05:35:16.663Z,1648
2018-05-01T05:36:17.057Z,1692
2018-05-01T05:37:16.707Z,1740
2018-05-01T05:38:16.984Z,1792
2018-05-01T05:39:17.005Z,1872
2018-05-01T05:40:17.027Z,1980
2018-05-01T05:41:17.049Z,2084
2018-05-01T05:42:16.566Z,2180
2018-05-01T05:43:17.085Z,2260
2018-05-01T05:44:17.111Z,2340
2018-05-01T05:45:16.890Z,2404
2018-05-01T05:46:16.898Z,2448
2018-05-01T05:47:17.176Z,2472
2018-05-01T05:48:16.933Z,2504
2018-05-01T05:49:17.244Z,2560
2018-05-01T05:50:17.211Z,2640
2018-05-01T05:51:16.733Z,2632
2018-05-01T05:52:17.262Z,2616
2018-05-01T05:53:17.026Z,2812
2018-05-01T05:54:17.304Z,2916
2018-05-01T05:55:17.067Z,2932
2018-05-01T05:56:17.339Z,2908
2018-05-01T05:57:17.376Z,2936
2018-05-01T05:58:17.398Z,3000
2018-05-01T05:59:17.166Z,3076
2018-05-01T06:00:17.184Z,3112
2018-05-01T06:01:17.518Z,3112
2018-05-01T06:02:17.487Z,3088
2018-05-01T06:03:16.748Z,3056
2018-05-01T06:04:17.324Z,3008
2018-05-01T06:05:17.545Z,2996
2018-05-01T06:06:17.324Z,2140
2018-05-01T06:07:17.077Z,3132
2018-05-01T06:08:17.610Z,3232
2018-05-01T06:09:17.643Z,3356
2018-05-01T06:10:17.143Z,3500
2018-05-01T06:11:17.681Z,3592
2018-05-01T06:12:17.722Z,3684
2018-05-01T06:13:17.718Z,3796
2018-05-01T06:14:17.495Z,3932
2018-05-01T06:15:17.762Z,4004
2018-05-01T06:16:17.788Z,4032
2018-05-01T06:17:17.561Z,4012
2018-05-01T06:18:17.569Z,3972
2018-05-01T06:19:17.890Z,3964
2018-05-01T06:20:17.620Z,3988
2018-05-01T06:21:17.634Z,4068
2018-05-01T06:22:17.659Z,4180
2018-05-01T06:23:17.680Z,4308
2018-05-01T06:24:17.708Z,4420
2018-05-01T06:25:17.719Z,4464
2018-05-01T06:26:18.000Z,4468
2018-05-01T06:27:18.018Z,4464
2018-05-01T06:28:18.033Z,4436
2018-05-01T06:29:18.069Z,4380
2018-05-01T06:30:18.081Z,4348
2018-05-01T06:31:18.660Z,4480
2018-05-01T06:32:17.869Z,4668
2018-05-01T06:33:18.161Z,4856
2018-05-01T06:34:17.947Z,4980
2018-05-01T06:35:17.916Z,5200
2018-05-01T06:36:18.211Z,5332
2018-05-01T06:37:17.986Z,4940
2018-05-01T06:38:18.249Z,5120
2018-05-01T06:39:18.268Z,5340
2018-05-01T06:40:18.034Z,5404
2018-05-01T06:41:18.319Z,4852
2018-05-01T06:42:18.079Z,4860
2018-05-01T06:43:18.096Z,5300
2018-05-01T06:44:17.876Z,5316
2018-05-01T06:45:18.396Z,5148
2018-05-01T06:46:18.164Z,4916
2018-05-01T06:47:18.436Z,4532
2018-05-01T06:48:18.206Z,4332
2018-05-01T06:49:18.531Z,4684
2018-05-01T06:50:18.508Z,4644
2018-05-01T06:51:18.526Z,4048
2018-05-01T06:52:18.415Z,3936
2018-05-01T06:53:18.564Z,5040
2018-05-01T06:54:18.344Z,5952
2018-05-01T06:55:18.371Z,6492
2018-05-01T06:56:18.125Z,6484
2018-05-01T06:57:18.653Z,5712
2018-05-01T06:58:18.678Z,5348
2018-05-01T06:59:18.182Z,5612
2018-05-01T07:00:18.716Z,5968
2018-05-01T07:01:18.738Z,6184
2018-05-01T07:02:18.754Z,5576
2018-05-01T07:03:18.782Z,4264
2018-05-01T07:04:19.063Z,5252
2018-05-01T07:05:18.829Z,6408
2018-05-01T07:06:18.841Z,6940
2018-05-01T07:07:18.867Z,6448
2018-05-01T07:08:18.896Z,6804
2018-05-01T07:09:18.881Z,7536
2018-05-01T07:10:19.145Z,8176
2018-05-01T07:11:18.924Z,8268
2018-05-01T07:12:18.692Z,7792
2018-05-01T07:13:18.753Z,7024
2018-05-01T07:14:19.014Z,6056
2018-05-01T07:15:19.041Z,5104
2018-05-01T07:16:19.067Z,5564
2018-05-01T07:17:19.083Z,7160
2018-05-01T07:18:19.130Z,8456
2018-05-01T07:19:19.155Z,9220
2018-05-01T07:20:19.126Z,9628
2018-05-01T07:21:19.535Z,9464
2018-05-01T07:22:18.919Z,9296
2018-05-01T07:23:18.710Z,8604
2018-05-01T07:24:18.477Z,8496
2018-05-01T07:25:19.258Z,9400
2018-05-01T07:26:19.030Z,10676
2018-05-01T07:27:19.049Z,10536
2018-05-01T07:28:19.429Z,10908
2018-05-01T07:29:18.581Z,10256
2018-05-01T07:30:19.368Z,10560
2018-05-01T07:31:19.132Z,10652
2018-05-01T07:32:19.410Z,11348
2018-05-01T07:33:19.179Z,10344
2018-05-01T07:34:19.504Z,10492
2018-05-01T07:35:19.223Z,10684
2018-05-01T07:36:19.541Z,10032
2018-05-01T07:37:19.532Z,9916
2018-05-01T07:38:19.554Z,10040
2018-05-01T07:39:19.571Z,10596
2018-05-01T07:40:19.592Z,10704
2018-05-01T07:41:19.111Z,10400
2018-05-01T07:42:19.643Z,10464
2018-05-01T07:43:19.429Z,9908
2018-05-01T07:44:19.687Z,9304
2018-05-01T07:45:19.705Z,9144
2018-05-01T07:46:19.818Z,9312
2018-05-01T07:47:19.745Z,10512
2018-05-01T07:48:19.521Z,11692
2018-05-01T07:49:19.843Z,12948
2018-05-01T07:50:19.311Z,11248
2018-05-01T07:51:19.924Z,11816
2018-05-01T07:52:19.611Z,11480
2018-05-01T07:53:19.646Z,12904
2018-05-01T07:54:19.911Z,11364
2018-05-01T07:55:19.938Z,10508
2018-05-01T07:56:19.457Z,10920
2018-05-01T07:57:19.727Z,12600
2018-05-01T07:58:19.747Z,10276
2018-05-01T07:59:19.773Z,11284
2018-05-01T08:00:20.159Z,11436
2018-05-01T08:01:20.078Z,12368
2018-05-01T08:02:20.116Z,13044
2018-05-01T08:03:19.861Z,15124
2018-05-01T08:04:20.199Z,14596
2018-05-01T08:05:20.170Z,13440
2018-05-01T08:06:20.173Z,13932
2018-05-01T08:07:20.202Z,14220
2018-05-01T08:08:20.231Z,15296
2018-05-01T08:09:20.002Z,14488
2018-05-01T08:10:20.032Z,13080
2018-05-01T08:11:20.092Z,12172
2018-05-01T08:12:20.077Z,11856
2018-05-01T08:13:20.101Z,12260
2018-05-01T08:14:20.120Z,11380
2018-05-01T08:15:20.153Z,9076
2018-05-01T08:16:20.171Z,7092
2018-05-01T08:17:20.215Z,7632
2018-05-01T08:18:19.963Z,9044
2018-05-01T08:19:21.757Z,10816
2018-05-01T08:20:20.516Z,12420
2018-05-01T08:21:20.541Z,11968
2018-05-01T08:22:20.579Z,12824
2018-05-01T08:23:20.338Z,12904
2018-05-01T08:24:20.645Z,13012
2018-05-01T08:25:20.116Z,12844
2018-05-01T08:26:20.399Z,11404
2018-05-01T08:27:20.417Z,11532
2018-05-01T08:28:20.460Z,10812
2018-05-01T08:29:20.722Z,9768
2018-05-01T08:30:20.751Z,8512
2018-05-01T08:31:20.770Z,9004
2018-05-01T08:32:20.795Z,10396
2018-05-01T08:33:20.836Z,11160
2018-05-01T08:34:20.838Z,11512
2018-05-01T08:35:20.858Z,12180
2018-05-01T08:36:20.886Z,9784
2018-05-01T08:37:20.648Z,11252
2018-05-01T08:38:20.942Z,13000
2018-05-01T08:39:20.701Z,13160
2018-05-01T08:40:20.983Z,13984
2018-05-01T08:41:20.755Z,13224
2018-05-01T08:42:20.783Z,13312
2018-05-01T08:43:20.518Z,16064
2018-05-01T08:44:21.071Z,18304
2018-05-01T08:45:21.283Z,18528
2018-05-01T08:46:20.869Z,17024
2018-05-01T08:47:21.141Z,16896
2018-05-01T08:48:20.932Z,16000
2018-05-01T08:49:21.190Z,15508
2018-05-01T08:50:21.215Z,15324
2018-05-01T08:51:21.280Z,14736
2018-05-01T08:52:21.272Z,13776
2018-05-01T08:53:21.285Z,12508
2018-05-01T08:54:21.319Z,11800
2018-05-01T08:55:21.341Z,11900
2018-05-01T08:56:21.360Z,12156
2018-05-01T08:57:21.482Z,12640
2018-05-01T08:58:21.161Z,13232
2018-05-01T08:59:21.432Z,13420
2018-05-01T09:00:21.212Z,13136
2018-05-01T09:01:21.231Z,12404
2018-05-01T09:02:21.508Z,11544
2018-05-01T09:03:21.537Z,10632
2018-05-01T09:04:21.123Z,10148
2018-05-01T09:05:21.632Z,10084
2018-05-01T09:06:21.610Z,10024
2018-05-01T09:07:21.632Z,10080
2018-05-01T09:08:21.399Z,10132
2018-05-01T09:09:21.426Z,10040
2018-05-01T09:10:21.248Z,9960
2018-05-01T09:11:21.724Z,10288
2018-05-01T09:12:21.248Z,10648
2018-05-01T09:13:21.788Z,10596
2018-05-01T09:14:21.811Z,9260
2018-05-01T09:15:21.567Z,8572
2018-05-01T09:16:21.851Z,9108
2018-05-01T09:17:21.627Z,9260
2018-05-01T09:18:22.569Z,10976
2018-05-01T09:19:21.923Z,11312
2018-05-01T09:20:21.700Z,11904
2018-05-01T09:21:21.965Z,12016
2018-05-01T09:22:22.000Z,11132
2018-05-01T09:23:22.009Z,11688
2018-05-01T09:24:21.784Z,12484
2018-05-01T09:25:21.860Z,12568
2018-05-01T09:26:21.829Z,12476
2018-05-01T09:27:21.866Z,12124
2018-05-01T09:28:21.872Z,11208
2018-05-01T09:29:22.148Z,8360
2018-05-01T09:30:22.176Z,7916
2018-05-01T09:31:22.203Z,9140
2018-05-01T09:32:21.971Z,10200
2018-05-01T09:33:22.259Z,9648
2018-05-01T09:34:22.281Z,9076
2018-05-01T09:35:22.356Z,10148
2018-05-01T09:36:22.064Z,9876
2018-05-01T09:37:22.338Z,9444
2018-05-01T09:38:22.102Z,8852
2018-05-01T09:39:22.123Z,8200
2018-05-01T09:40:22.445Z,8752
2018-05-01T09:41:22.186Z,8956
2018-05-01T09:42:22.189Z,9064
2018-05-01T09:43:22.458Z,9916
2018-05-01T09:44:22.237Z,10356
2018-05-01T09:45:22.512Z,9620
2018-05-01T09:46:22.289Z,8520
2018-05-01T09:47:22.669Z,7868
2018-05-01T09:48:22.601Z,7308
2018-05-01T09:49:22.367Z,7240
2018-05-01T09:50:22.647Z,8480
2018-05-01T09:51:22.418Z,9308
2018-05-01T09:52:22.688Z,9016
2018-05-01T09:53:22.939Z,9292
2018-05-01T09:54:22.748Z,9160
2018-05-01T09:55:22.046Z,9288
2018-05-01T09:56:22.525Z,10584
2018-05-01T09:57:22.794Z,11220
2018-05-01T09:58:22.573Z,10952
2018-05-01T09:59:22.842Z,11004
2018-05-01T10:00:22.865Z,10984
2018-05-01T10:01:22.891Z,11244
2018-05-01T10:02:22.750Z,11440
2018-05-01T10:03:22.953Z,11128
2018-05-01T10:04:22.720Z,10308
2018-05-01T10:05:22.639Z,9952
2018-05-01T10:06:23.030Z,9400
2018-05-01T10:07:23.047Z,10808
2018-05-01T10:08:23.086Z,9952
2018-05-01T10:09:23.095Z,8548
2018-05-01T10:10:23.115Z,8416
2018-05-01T10:11:22.892Z,9448
2018-05-01T10:12:22.881Z,10000
2018-05-01T10:13:23.218Z,10728
2018-05-01T10:14:22.957Z,9480
2018-05-01T10:15:22.980Z,8940
2018-05-01T10:16:22.754Z,11180
2018-05-01T10:17:22.779Z,11164
2018-05-01T10:18:23.311Z,9624
2018-05-01T10:19:23.339Z,8292
2018-05-01T10:20:23.417Z,9308
2018-05-01T10:21:23.121Z,9804
2018-05-01T10:22:23.142Z,9900
2018-05-01T10:23:23.166Z,9748
2018-05-01T10:24:23.179Z,9700
2018-05-01T10:25:22.948Z,9596
2018-05-01T10:26:22.969Z,9744
2018-05-01T10:27:23.502Z,9676
2018-05-01T10:28:23.529Z,9676
2018-05-01T10:29:23.293Z,9780
2018-05-01T10:30:23.317Z,10208
2018-05-01T10:31:23.596Z,10892
2018-05-01T10:32:23.400Z,11768
2018-05-01T10:33:23.145Z,12536
2018-05-01T10:34:23.446Z,13340
2018-05-01T10:35:23.194Z,12704
2018-05-01T10:36:23.732Z,11116
2018-05-01T10:37:23.496Z,11448
2018-05-01T10:38:23.566Z,10800
2018-05-01T10:39:23.848Z,9260
2018-05-01T10:40:23.818Z,9644
2018-05-01T10:41:23.595Z,11444
2018-05-01T10:42:23.597Z,11444
2018-05-01T10:43:23.620Z,10500
2018-05-01T10:44:23.635Z,10000
2018-05-01T10:45:23.947Z,9744
2018-05-01T10:46:23.709Z,9788
2018-05-01T10:47:23.727Z,9476
2018-05-01T10:48:23.766Z,9120
2018-05-01T10:49:24.267Z,8744
2018-05-01T10:50:23.547Z,8500
2018-05-01T10:51:24.066Z,7956
2018-05-01T10:52:24.087Z,8340
2018-05-01T10:53:23.611Z,8196
2018-05-01T10:54:23.951Z,7544
2018-05-01T10:55:24.180Z,7020
2018-05-01T10:56:23.952Z,7204
2018-05-01T10:57:23.966Z,7248
2018-05-01T10:58:23.992Z,7488
2018-05-01T10:59:24.275Z,8064
2018-05-01T11:00:24.301Z,8328
2018-05-01T11:01:24.058Z,8684
2018-05-01T11:02:24.086Z,8888
2018-05-01T11:03:24.120Z,9240
2018-05-01T11:04:23.875Z,9552
2018-05-01T11:05:24.247Z,9620
2018-05-01T11:06:24.439Z,10112
2018-05-01T11:07:24.196Z,9844
2018-05-01T11:08:24.353Z,9452
2018-05-01T11:09:24.301Z,9932
2018-05-01T11:10:24.278Z,10180
2018-05-01T11:11:24.562Z,9884
2018-05-01T11:12:24.581Z,10240
2018-05-01T11:13:24.348Z,10636
2018-05-01T11:14:24.382Z,11216
2018-05-01T11:15:24.394Z,11872
2018-05-01T11:16:24.687Z,12028
2018-05-01T11:17:24.851Z,11668
2018-05-01T11:18:24.718Z,11020
2018-05-01T11:19:24.477Z,10408
2018-05-01T11:20:24.257Z,10336
2018-05-01T11:21:24.534Z,10544
2018-05-01T11:22:24.562Z,10764
2018-05-01T11:23:24.913Z,11780
2018-05-01T11:24:24.672Z,12832
2018-05-01T11:25:24.626Z,13272
2018-05-01T11:26:25.111Z,13968
2018-05-01T11:27:24.926Z,14808
2018-05-01T11:28:24.958Z,15844
2018-05-01T11:29:24.472Z,17088
2018-05-01T11:30:25.013Z,18368
2018-05-01T11:31:24.523Z,19776
2018-05-01T11:32:25.082Z,21216
2018-05-01T11:33:25.082Z,22368
2018-05-01T11:34:24.854Z,30432
2018-05-01T11:35:25.132Z,34880
2018-05-01T11:36:25.145Z,53248
2018-05-01T11:37:25.186Z,28960
2018-05-01T11:38:24.931Z,53632
2018-05-01T11:39:24.776Z,54208
2018-05-01T11:40:24.756Z,52832
2018-05-01T11:41:25.293Z,49408
2018-05-01T11:42:25.054Z,51552
2018-05-01T11:43:25.338Z,50656
2018-05-01T11:44:25.424Z,49792
2018-05-01T11:45:25.408Z,52672
2018-05-01T11:46:25.294Z,55392
2018-05-01T11:47:25.463Z,54720
2018-05-01T11:48:25.477Z,51680
2018-05-01T11:49:25.507Z,44928
2018-05-01T11:50:25.284Z,43200
2018-05-01T11:51:25.565Z,53952
2018-05-01T11:52:25.341Z,24160
2018-05-01T11:53:25.437Z,50944
2018-05-01T11:54:25.702Z,53632
2018-05-01T11:55:25.176Z,52480
2018-05-01T11:56:25.735Z,53792
2018-05-01T11:57:25.492Z,55904
2018-05-01T11:58:25.781Z,53216
2018-05-01T11:59:25.695Z,53472
2018-05-01T12:00:25.839Z,55008
2018-05-01T12:01:25.867Z,52288
2018-05-01T12:02:25.657Z,50752
2018-05-01T12:03:25.410Z,48800
2018-05-01T12:04:26.161Z,53344
2018-05-01T12:05:26.006Z,56928
2018-05-01T12:06:26.027Z,56608
2018-05-01T12:07:26.050Z,55712
2018-05-01T12:08:26.081Z,54944
2018-05-01T12:09:26.420Z,55264
2018-05-01T12:10:26.152Z,55424
2018-05-01T12:11:26.178Z,57216
2018-05-01T12:12:26.216Z,58560
2018-05-01T12:13:26.340Z,60480
2018-05-01T12:14:26.029Z,62368
2018-05-01T12:15:26.055Z,63136
2018-05-01T12:16:26.086Z,61280
2018-05-01T12:17:26.372Z,59648
2018-05-01T12:18:26.148Z,59328
2018-05-01T12:19:26.187Z,62848
2018-05-01T12:20:26.474Z,63936
2018-05-01T12:21:26.240Z,60480
2018-05-01T12:22:26.287Z,57408
2018-05-01T12:23:26.313Z,55392
2018-05-01T12:24:26.388Z,51744
2018-05-01T12:25:26.383Z,47776
2018-05-01T12:26:26.750Z,43488
2018-05-01T12:27:26.454Z,40640
2018-05-01T12:28:26.476Z,45952
2018-05-01T12:29:26.757Z,49920
2018-05-01T12:30:26.532Z,52608
2018-05-01T12:31:26.321Z,54752
2018-05-01T12:32:26.600Z,58592
2018-05-01T12:33:26.381Z,58464
2018-05-01T12:34:26.730Z,56448
2018-05-01T12:35:26.954Z,52544
2018-05-01T12:36:27.266Z,61888
2018-05-01T12:37:27.042Z,20160
2018-05-01T12:38:27.054Z,30976
2018-05-01T12:39:26.895Z,27360
2018-05-01T12:40:27.144Z,39328
2018-05-01T12:41:27.160Z,60384
2018-05-01T12:42:26.744Z,63808
2018-05-01T12:43:27.237Z,66528
2018-05-01T12:44:27.957Z,62432
2018-05-01T12:45:26.783Z,63040
2018-05-01T12:46:27.068Z,25920
2018-05-01T12:47:27.354Z,79360
2018-05-01T12:48:27.874Z,22336
2018-05-01T12:49:27.166Z,21280
2018-05-01T12:50:26.952Z,21088
2018-05-01T12:51:27.235Z,20672
2018-05-01T12:52:27.512Z,20800
2018-05-01T12:53:27.559Z,22688
2018-05-01T12:54:27.789Z,22912
2018-05-01T12:55:27.359Z,31776
2018-05-01T12:56:27.395Z,28960
2018-05-01T12:57:27.684Z,22880
2018-05-01T12:58:27.716Z,19424
2018-05-01T12:59:27.749Z,19680
2018-05-01T13:00:27.787Z,18464
2018-05-01T13:01:27.306Z,22784
2018-05-01T13:02:27.605Z,23648
2018-05-01T13:03:27.885Z,19936
2018-05-01T13:04:27.659Z,25632
2018-05-01T13:05:27.692Z,23808
2018-05-01T13:06:27.944Z,25696
2018-05-01T13:07:27.992Z,26560
2018-05-01T13:08:27.753Z,30240
2018-05-01T13:09:28.111Z,17600
2018-05-01T13:10:28.076Z,14508
2018-05-01T13:11:28.099Z,15264
2018-05-01T13:12:27.712Z,14824
2018-05-01T13:13:28.210Z,17120
2018-05-01T13:14:27.686Z,19296
2018-05-01T13:15:27.967Z,20992
2018-05-01T13:16:28.001Z,57632
2018-05-01T13:17:28.293Z,55296
2018-05-01T13:18:28.322Z,32800
2018-05-01T13:19:28.370Z,32064
2018-05-01T13:20:28.403Z,25920
2018-05-01T13:21:28.414Z,20608
2018-05-01T13:22:28.424Z,27520
2018-05-01T13:23:28.458Z,39744
2018-05-01T13:24:28.280Z,48064
2018-05-01T13:25:28.519Z,56640
2018-05-01T13:26:28.559Z,57600
2018-05-01T13:27:28.825Z,47392
2018-05-01T13:28:27.849Z,42592
2018-05-01T13:29:28.132Z,51552
2018-05-01T13:30:28.418Z,39680
2018-05-01T13:31:28.806Z,34304
2018-05-01T13:32:28.663Z,23936
2018-05-01T13:33:28.768Z,18432
2018-05-01T13:34:28.518Z,18368